sensor_id;sensor_type;location;lat;lon;timestamp;temperature;humidity
25410;DHT22;13339;50.840;4.346;2023-03-21T00:00:35;14.40;99.90
25410;DHT22;13339;50.840;4.346;2023-03-21T00:03:00;14.40;99.90
25410;DHT22;13339;50.840;4.346;2023-03-21T00:05:26;14.30;99.90
25410;DHT22;13339;50.840;4.346;2023-03-21T00:07:52;14.30;99.90
25410;DHT22;13339;50.840;4.346;2023-03-21T00:10:18;14.30;99.90
25410;DHT22;13339;50.840;4.346;2023-03-21T00:12:44;14.40;99.90
25410;DHT22;13339;50.840;4.346;2023-03-21T00:15:11;14.40;99.90
25410;DHT22;13339;50.840;4.346;2023-03-21T00:17:37;14.30;99.90
25410;DHT22;13339;50.840;4.346;2023-03-21T00:20:05;14.30;99.90
25410;DHT22;13339;50.840;4.346;2023-03-21T00:22:34;14.40;99.90
25410;DHT22;13339;50.840;4.346;2023-03-21T00:25:00;14.40;99.90
25410;DHT22;13339;50.840;4.346;2023-03-21T00:27:26;14.40;99.90
25410;DHT22;13339;50.840;4.346;2023-03-21T00:29:52;14.40;99.90
25410;DHT22;13339;50.840;4.346;2023-03-21T00:32:18;14.40;99.90
25410;DHT22;13339;50.840;4.346;2023-03-21T00:34:44;14.50;99.90
25410;DHT22;13339;50.840;4.346;2023-03-21T00:37:10;14.40;99.90
25410;DHT22;13339;50.840;4.346;2023-03-21T00:39:38;14.30;99.90
25410;DHT22;13339;50.840;4.346;2023-03-21T00:42:04;14.30;99.90
25410;DHT22;13339;50.840;4.346;2023-03-21T00:44:30;14.30;99.90
25410;DHT22;13339;50.840;4.346;2023-03-21T00:47:02;14.30;99.90
25410;DHT22;13339;50.840;4.346;2023-03-21T00:49:28;14.10;99.90
25410;DHT22;13339;50.840;4.346;2023-03-21T00:52:02;14.10;99.90
25410;DHT22;13339;50.840;4.346;2023-03-21T00:54:28;14.10;99.90
25410;DHT22;13339;50.840;4.346;2023-03-21T00:56:55;14.10;99.90
25410;DHT22;13339;50.840;4.346;2023-03-21T00:59:20;14.10;99.90
25410;DHT22;13339;50.840;4.346;2023-03-21T01:01:46;14.20;99.90
25410;DHT22;13339;50.840;4.346;2023-03-21T01:04:12;14.30;99.90
25410;DHT22;13339;50.840;4.346;2023-03-21T01:06:40;14.30;99.90
25410;DHT22;13339;50.840;4.346;2023-03-21T01:09:14;14.40;99.90
25410;DHT22;13339;50.840;4.346;2023-03-21T01:11:40;14.40;99.90
25410;DHT22;13339;50.840;4.346;2023-03-21T01:14:07;14.40;99.90
25410;DHT22;13339;50.840;4.346;2023-03-21T01:16:33;14.40;99.90
25410;DHT22;13339;50.840;4.346;2023-03-21T01:18:58;14.40;99.90
25410;DHT22;13339;50.840;4.346;2023-03-21T01:21:24;14.40;99.90
25410;DHT22;13339;50.840;4.346;2023-03-21T01:23:50;14.40;99.90
25410;DHT22;13339;50.840;4.346;2023-03-21T01:26:16;14.40;99.90
25410;DHT22;13339;50.840;4.346;2023-03-21T01:28:42;14.40;99.90
25410;DHT22;13339;50.840;4.346;2023-03-21T01:31:13;14.40;99.90
25410;DHT22;13339;50.840;4.346;2023-03-21T01:33:39;14.30;99.90
25410;DHT22;13339;50.840;4.346;2023-03-21T01:36:06;14.30;99.90
25410;DHT22;13339;50.840;4.346;2023-03-21T01:38:32;14.30;99.90
25410;DHT22;13339;50.840;4.346;2023-03-21T01:41:00;14.40;99.90
25410;DHT22;13339;50.840;4.346;2023-03-21T01:43:31;14.40;99.90
25410;DHT22;13339;50.840;4.346;2023-03-21T01:48:33;14.30;99.90
25410;DHT22;13339;50.840;4.346;2023-03-21T01:50:59;14.30;99.90
25410;DHT22;13339;50.840;4.346;2023-03-21T01:53:28;14.40;99.90
25410;DHT22;13339;50.840;4.346;2023-03-21T01:56:00;14.40;99.90
25410;DHT22;13339;50.840;4.346;2023-03-21T01:58:27;14.30;99.90
25410;DHT22;13339;50.840;4.346;2023-03-21T02:00:55;14.30;99.90
25410;DHT22;13339;50.840;4.346;2023-03-21T02:03:21;14.40;99.90
25410;DHT22;13339;50.840;4.346;2023-03-21T02:06:01;14.40;99.90
25410;DHT22;13339;50.840;4.346;2023-03-21T02:08:30;14.40;99.90
25410;DHT22;13339;50.840;4.346;2023-03-21T02:10:56;14.40;99.90
25410;DHT22;13339;50.840;4.346;2023-03-21T02:13:22;14.40;99.90
25410;DHT22;13339;50.840;4.346;2023-03-21T02:16:13;14.40;99.90
25410;DHT22;13339;50.840;4.346;2023-03-21T02:21:56;14.50;99.90
25410;DHT22;13339;50.840;4.346;2023-03-21T02:27:23;14.60;99.90
25410;DHT22;13339;50.840;4.346;2023-03-21T02:35:25;14.40;99.90
25410;DHT22;13339;50.840;4.346;2023-03-21T02:38:31;14.50;99.90
25410;DHT22;13339;50.840;4.346;2023-03-21T02:41:18;14.60;99.90
25410;DHT22;13339;50.840;4.346;2023-03-21T02:43:58;14.60;99.90
25410;DHT22;13339;50.840;4.346;2023-03-21T02:46:38;14.70;99.90
25410;DHT22;13339;50.840;4.346;2023-03-21T02:49:15;14.70;99.90
25410;DHT22;13339;50.840;4.346;2023-03-21T02:51:45;14.70;99.90
25410;DHT22;13339;50.840;4.346;2023-03-21T02:54:15;14.60;99.90
25410;DHT22;13339;50.840;4.346;2023-03-21T02:56:41;14.50;99.90
25410;DHT22;13339;50.840;4.346;2023-03-21T02:59:09;14.60;99.90
25410;DHT22;13339;50.840;4.346;2023-03-21T03:01:35;14.50;99.90
25410;DHT22;13339;50.840;4.346;2023-03-21T03:04:01;14.50;99.90
25410;DHT22;13339;50.840;4.346;2023-03-21T03:06:40;14.50;99.90
25410;DHT22;13339;50.840;4.346;2023-03-21T03:12:10;14.50;99.90
25410;DHT22;13339;50.840;4.346;2023-03-21T03:14:58;14.50;99.90
25410;DHT22;13339;50.840;4.346;2023-03-21T03:20:07;14.50;99.90
25410;DHT22;13339;50.840;4.346;2023-03-21T03:23:04;14.60;99.90
25410;DHT22;13339;50.840;4.346;2023-03-21T03:25:36;14.60;99.90
25410;DHT22;13339;50.840;4.346;2023-03-21T03:28:05;14.50;99.90
25410;DHT22;13339;50.840;4.346;2023-03-21T03:30:32;14.50;99.90
25410;DHT22;13339;50.840;4.346;2023-03-21T03:33:02;14.50;99.90
25410;DHT22;13339;50.840;4.346;2023-03-21T03:35:31;14.50;99.90
25410;DHT22;13339;50.840;4.346;2023-03-21T03:38:00;14.50;99.90
25410;DHT22;13339;50.840;4.346;2023-03-21T03:40:34;14.40;99.90
25410;DHT22;13339;50.840;4.346;2023-03-21T03:43:05;14.40;99.90
25410;DHT22;13339;50.840;4.346;2023-03-21T03:45:40;14.40;99.90
25410;DHT22;13339;50.840;4.346;2023-03-21T03:48:20;14.50;99.90
25410;DHT22;13339;50.840;4.346;2023-03-21T03:51:01;14.40;99.90
25410;DHT22;13339;50.840;4.346;2023-03-21T03:53:41;14.50;99.90
25410;DHT22;13339;50.840;4.346;2023-03-21T03:56:09;14.60;99.90
25410;DHT22;13339;50.840;4.346;2023-03-21T03:58:36;14.50;99.90
25410;DHT22;13339;50.840;4.346;2023-03-21T04:01:04;14.50;99.90
25410;DHT22;13339;50.840;4.346;2023-03-21T04:03:32;14.40;99.90
25410;DHT22;13339;50.840;4.346;2023-03-21T04:05:57;14.40;99.90
25410;DHT22;13339;50.840;4.346;2023-03-21T04:08:23;14.40;99.90
25410;DHT22;13339;50.840;4.346;2023-03-21T04:10:49;14.40;99.90
25410;DHT22;13339;50.840;4.346;2023-03-21T04:13:14;14.40;99.90
25410;DHT22;13339;50.840;4.346;2023-03-21T04:15:40;14.50;99.90
25410;DHT22;13339;50.840;4.346;2023-03-21T04:18:06;14.40;99.90
25410;DHT22;13339;50.840;4.346;2023-03-21T04:20:31;14.50;99.90
25410;DHT22;13339;50.840;4.346;2023-03-21T04:22:57;14.50;99.90
25410;DHT22;13339;50.840;4.346;2023-03-21T04:25:23;14.60;99.90
25410;DHT22;13339;50.840;4.346;2023-03-21T04:27:49;14.50;99.90
25410;DHT22;13339;50.840;4.346;2023-03-21T04:30:14;14.50;99.90
25410;DHT22;13339;50.840;4.346;2023-03-21T04:32:40;14.50;99.90
25410;DHT22;13339;50.840;4.346;2023-03-21T04:35:08;14.40;99.90
25410;DHT22;13339;50.840;4.346;2023-03-21T04:37:34;14.50;99.90
25410;DHT22;13339;50.840;4.346;2023-03-21T04:40:00;14.60;99.90
25410;DHT22;13339;50.840;4.346;2023-03-21T04:42:31;14.60;99.90
25410;DHT22;13339;50.840;4.346;2023-03-21T04:44:57;14.60;99.90
25410;DHT22;13339;50.840;4.346;2023-03-21T04:47:23;14.60;99.90
25410;DHT22;13339;50.840;4.346;2023-03-21T04:49:48;14.70;99.90
25410;DHT22;13339;50.840;4.346;2023-03-21T04:52:15;14.70;99.90
25410;DHT22;13339;50.840;4.346;2023-03-21T04:54:41;14.60;99.90
25410;DHT22;13339;50.840;4.346;2023-03-21T04:57:06;14.60;99.90
25410;DHT22;13339;50.840;4.346;2023-03-21T04:59:33;14.70;99.90
25410;DHT22;13339;50.840;4.346;2023-03-21T05:01:59;14.80;99.90
25410;DHT22;13339;50.840;4.346;2023-03-21T05:04:25;14.70;99.90
25410;DHT22;13339;50.840;4.346;2023-03-21T05:06:51;14.70;99.90
25410;DHT22;13339;50.840;4.346;2023-03-21T05:09:17;14.70;99.90
25410;DHT22;13339;50.840;4.346;2023-03-21T05:11:43;14.70;99.90
25410;DHT22;13339;50.840;4.346;2023-03-21T05:14:13;14.70;99.90
25410;DHT22;13339;50.840;4.346;2023-03-21T05:16:40;14.70;99.90
25410;DHT22;13339;50.840;4.346;2023-03-21T05:19:10;14.60;99.90
25410;DHT22;13339;50.840;4.346;2023-03-21T05:21:38;14.70;99.90
25410;DHT22;13339;50.840;4.346;2023-03-21T05:24:08;14.60;99.90
25410;DHT22;13339;50.840;4.346;2023-03-21T05:26:37;14.50;99.90
25410;DHT22;13339;50.840;4.346;2023-03-21T05:29:04;14.50;99.90
25410;DHT22;13339;50.840;4.346;2023-03-21T05:31:29;14.50;99.90
25410;DHT22;13339;50.840;4.346;2023-03-21T05:33:55;14.50;99.90
25410;DHT22;13339;50.840;4.346;2023-03-21T05:36:20;14.60;99.90
25410;DHT22;13339;50.840;4.346;2023-03-21T05:38:46;14.60;99.90
25410;DHT22;13339;50.840;4.346;2023-03-21T05:41:13;14.50;99.90
25410;DHT22;13339;50.840;4.346;2023-03-21T05:43:39;14.40;99.90
25410;DHT22;13339;50.840;4.346;2023-03-21T05:46:05;14.40;99.90
25410;DHT22;13339;50.840;4.346;2023-03-21T05:48:30;14.30;99.90
25410;DHT22;13339;50.840;4.346;2023-03-21T05:50:56;14.30;99.90
25410;DHT22;13339;50.840;4.346;2023-03-21T05:53:21;14.50;99.90
25410;DHT22;13339;50.840;4.346;2023-03-21T05:55:47;14.30;99.90
25410;DHT22;13339;50.840;4.346;2023-03-21T05:58:13;14.30;99.90
25410;DHT22;13339;50.840;4.346;2023-03-21T06:00:38;14.10;99.90
25410;DHT22;13339;50.840;4.346;2023-03-21T06:03:04;14.10;99.90
25410;DHT22;13339;50.840;4.346;2023-03-21T06:05:30;14.10;99.90
25410;DHT22;13339;50.840;4.346;2023-03-21T06:07:55;14.10;99.90
25410;DHT22;13339;50.840;4.346;2023-03-21T06:10:21;14.10;99.90
25410;DHT22;13339;50.840;4.346;2023-03-21T06:12:47;14.00;99.90
25410;DHT22;13339;50.840;4.346;2023-03-21T06:15:12;14.00;99.90
25410;DHT22;13339;50.840;4.346;2023-03-21T06:17:38;14.10;99.90
25410;DHT22;13339;50.840;4.346;2023-03-21T06:20:04;14.10;99.90
25410;DHT22;13339;50.840;4.346;2023-03-21T06:22:32;14.00;99.90
25410;DHT22;13339;50.840;4.346;2023-03-21T06:24:57;13.90;99.90
25410;DHT22;13339;50.840;4.346;2023-03-21T06:27:23;13.80;99.90
25410;DHT22;13339;50.840;4.346;2023-03-21T06:29:49;13.70;99.90
25410;DHT22;13339;50.840;4.346;2023-03-21T06:32:14;13.80;99.90
25410;DHT22;13339;50.840;4.346;2023-03-21T06:34:41;13.80;99.90
25410;DHT22;13339;50.840;4.346;2023-03-21T06:37:07;13.80;99.90
25410;DHT22;13339;50.840;4.346;2023-03-21T06:39:33;13.80;99.90
25410;DHT22;13339;50.840;4.346;2023-03-21T06:41:59;13.90;99.90
25410;DHT22;13339;50.840;4.346;2023-03-21T06:44:25;13.80;99.90
25410;DHT22;13339;50.840;4.346;2023-03-21T06:46:52;13.80;99.90
25410;DHT22;13339;50.840;4.346;2023-03-21T06:49:18;13.80;99.90
25410;DHT22;13339;50.840;4.346;2023-03-21T06:51:44;13.80;99.90
25410;DHT22;13339;50.840;4.346;2023-03-21T06:54:10;13.90;99.90
25410;DHT22;13339;50.840;4.346;2023-03-21T06:56:36;13.90;99.90
25410;DHT22;13339;50.840;4.346;2023-03-21T06:59:02;14.00;99.90
25410;DHT22;13339;50.840;4.346;2023-03-21T07:01:28;14.00;99.90
25410;DHT22;13339;50.840;4.346;2023-03-21T07:03:55;14.00;99.90
25410;DHT22;13339;50.840;4.346;2023-03-21T07:06:22;14.10;99.90
25410;DHT22;13339;50.840;4.346;2023-03-21T07:08:51;14.10;99.90
25410;DHT22;13339;50.840;4.346;2023-03-21T07:11:16;14.10;99.90
25410;DHT22;13339;50.840;4.346;2023-03-21T07:13:42;14.10;99.90
25410;DHT22;13339;50.840;4.346;2023-03-21T07:16:08;13.90;99.90
25410;DHT22;13339;50.840;4.346;2023-03-21T07:18:34;13.90;99.90
25410;DHT22;13339;50.840;4.346;2023-03-21T07:21:00;13.90;99.90
25410;DHT22;13339;50.840;4.346;2023-03-21T07:23:26;13.90;99.90
25410;DHT22;13339;50.840;4.346;2023-03-21T07:25:53;14.00;99.90
25410;DHT22;13339;50.840;4.346;2023-03-21T07:28:19;14.10;99.90
25410;DHT22;13339;50.840;4.346;2023-03-21T07:30:55;14.10;99.90
25410;DHT22;13339;50.840;4.346;2023-03-21T07:33:22;14.20;99.90
25410;DHT22;13339;50.840;4.346;2023-03-21T07:35:52;14.30;99.90
25410;DHT22;13339;50.840;4.346;2023-03-21T07:38:18;14.30;99.90
25410;DHT22;13339;50.840;4.346;2023-03-21T07:40:45;14.50;99.90
25410;DHT22;13339;50.840;4.346;2023-03-21T07:43:11;14.50;99.90
25410;DHT22;13339;50.840;4.346;2023-03-21T07:45:37;14.50;99.90
25410;DHT22;13339;50.840;4.346;2023-03-21T07:48:02;14.60;99.90
25410;DHT22;13339;50.840;4.346;2023-03-21T07:50:28;14.60;99.90
25410;DHT22;13339;50.840;4.346;2023-03-21T07:52:54;14.60;99.90
25410;DHT22;13339;50.840;4.346;2023-03-21T07:55:19;14.50;99.90
25410;DHT22;13339;50.840;4.346;2023-03-21T07:57:48;14.30;99.90
25410;DHT22;13339;50.840;4.346;2023-03-21T08:00:16;14.30;99.90
25410;DHT22;13339;50.840;4.346;2023-03-21T08:02:48;14.30;99.90
25410;DHT22;13339;50.840;4.346;2023-03-21T08:05:15;14.30;99.90
25410;DHT22;13339;50.840;4.346;2023-03-21T08:07:43;14.30;99.90
25410;DHT22;13339;50.840;4.346;2023-03-21T08:10:09;14.40;99.90
25410;DHT22;13339;50.840;4.346;2023-03-21T08:12:35;14.40;99.90
25410;DHT22;13339;50.840;4.346;2023-03-21T08:15:01;14.30;99.90
25410;DHT22;13339;50.840;4.346;2023-03-21T08:17:27;14.30;99.90
25410;DHT22;13339;50.840;4.346;2023-03-21T08:19:52;14.40;99.90
25410;DHT22;13339;50.840;4.346;2023-03-21T08:22:18;14.60;99.90
25410;DHT22;13339;50.840;4.346;2023-03-21T08:24:43;14.70;99.90
25410;DHT22;13339;50.840;4.346;2023-03-21T08:27:09;14.80;99.90
25410;DHT22;13339;50.840;4.346;2023-03-21T08:29:35;14.90;99.90
25410;DHT22;13339;50.840;4.346;2023-03-21T08:32:05;15.00;99.90
25410;DHT22;13339;50.840;4.346;2023-03-21T08:34:30;15.20;99.90
25410;DHT22;13339;50.840;4.346;2023-03-21T08:36:56;15.10;99.90
25410;DHT22;13339;50.840;4.346;2023-03-21T08:39:22;15.10;99.90
25410;DHT22;13339;50.840;4.346;2023-03-21T08:41:49;15.20;99.90
25410;DHT22;13339;50.840;4.346;2023-03-21T08:44:15;15.10;99.90
25410;DHT22;13339;50.840;4.346;2023-03-21T08:46:41;15.10;99.90
25410;DHT22;13339;50.840;4.346;2023-03-21T08:49:07;15.10;99.90
25410;DHT22;13339;50.840;4.346;2023-03-21T08:51:32;15.10;99.90
25410;DHT22;13339;50.840;4.346;2023-03-21T08:53:58;15.10;99.90
25410;DHT22;13339;50.840;4.346;2023-03-21T08:56:24;15.20;99.90
25410;DHT22;13339;50.840;4.346;2023-03-21T08:58:49;15.10;99.90
25410;DHT22;13339;50.840;4.346;2023-03-21T09:01:15;15.30;99.90
25410;DHT22;13339;50.840;4.346;2023-03-21T09:03:41;15.40;99.90
25410;DHT22;13339;50.840;4.346;2023-03-21T09:06:08;15.50;99.90
25410;DHT22;13339;50.840;4.346;2023-03-21T09:08:39;15.30;99.90
25410;DHT22;13339;50.840;4.346;2023-03-21T09:11:07;15.20;99.90
25410;DHT22;13339;50.840;4.346;2023-03-21T09:13:33;15.30;99.90
25410;DHT22;13339;50.840;4.346;2023-03-21T09:15:59;15.40;99.90
25410;DHT22;13339;50.840;4.346;2023-03-21T09:18:26;15.30;99.90
25410;DHT22;13339;50.840;4.346;2023-03-21T09:21:09;15.40;99.90
25410;DHT22;13339;50.840;4.346;2023-03-21T09:23:39;15.40;99.90
25410;DHT22;13339;50.840;4.346;2023-03-21T09:26:06;15.40;99.90
25410;DHT22;13339;50.840;4.346;2023-03-21T09:28:34;15.40;99.90
25410;DHT22;13339;50.840;4.346;2023-03-21T09:31:00;15.40;99.90
25410;DHT22;13339;50.840;4.346;2023-03-21T09:33:27;15.40;99.90
25410;DHT22;13339;50.840;4.346;2023-03-21T09:35:54;15.30;99.90
25410;DHT22;13339;50.840;4.346;2023-03-21T09:38:20;15.40;99.90
25410;DHT22;13339;50.840;4.346;2023-03-21T09:40:53;15.40;99.90
25410;DHT22;13339;50.840;4.346;2023-03-21T09:51:15;15.60;99.90
25410;DHT22;13339;50.840;4.346;2023-03-21T09:53:44;15.50;99.90
25410;DHT22;13339;50.840;4.346;2023-03-21T09:56:12;15.70;99.90
25410;DHT22;13339;50.840;4.346;2023-03-21T09:58:44;15.70;99.90
25410;DHT22;13339;50.840;4.346;2023-03-21T10:01:17;15.80;99.90
25410;DHT22;13339;50.840;4.346;2023-03-21T10:04:04;15.90;99.90
25410;DHT22;13339;50.840;4.346;2023-03-21T10:06:33;15.90;99.90
25410;DHT22;13339;50.840;4.346;2023-03-21T10:09:14;15.80;99.90
25410;DHT22;13339;50.840;4.346;2023-03-21T10:11:44;15.80;99.90
25410;DHT22;13339;50.840;4.346;2023-03-21T10:14:30;15.80;99.90
25410;DHT22;13339;50.840;4.346;2023-03-21T10:17:08;15.70;99.90
25410;DHT22;13339;50.840;4.346;2023-03-21T10:19:41;15.70;99.90
25410;DHT22;13339;50.840;4.346;2023-03-21T10:22:10;15.80;99.90
25410;DHT22;13339;50.840;4.346;2023-03-21T10:24:36;15.90;99.90
25410;DHT22;13339;50.840;4.346;2023-03-21T10:27:03;15.90;99.90
25410;DHT22;13339;50.840;4.346;2023-03-21T10:29:34;15.90;99.90
25410;DHT22;13339;50.840;4.346;2023-03-21T10:32:09;15.90;99.90
25410;DHT22;13339;50.840;4.346;2023-03-21T10:34:38;16.10;99.90
25410;DHT22;13339;50.840;4.346;2023-03-21T10:37:06;16.30;99.90
25410;DHT22;13339;50.840;4.346;2023-03-21T10:39:33;16.30;99.90
25410;DHT22;13339;50.840;4.346;2023-03-21T10:42:00;16.50;99.90
25410;DHT22;13339;50.840;4.346;2023-03-21T10:44:34;16.50;99.90
25410;DHT22;13339;50.840;4.346;2023-03-21T10:47:07;16.60;99.90
25410;DHT22;13339;50.840;4.346;2023-03-21T10:49:36;16.70;99.90
25410;DHT22;13339;50.840;4.346;2023-03-21T10:52:04;16.60;99.90
25410;DHT22;13339;50.840;4.346;2023-03-21T10:54:32;16.60;99.90
25410;DHT22;13339;50.840;4.346;2023-03-21T10:59:36;16.80;99.90
25410;DHT22;13339;50.840;4.346;2023-03-21T11:02:04;16.90;99.90
25410;DHT22;13339;50.840;4.346;2023-03-21T11:04:30;17.10;99.90
25410;DHT22;13339;50.840;4.346;2023-03-21T11:06:58;17.10;99.90
25410;DHT22;13339;50.840;4.346;2023-03-21T11:09:43;17.20;99.90
25410;DHT22;13339;50.840;4.346;2023-03-21T11:12:15;17.10;99.90
25410;DHT22;13339;50.840;4.346;2023-03-21T11:14:49;17.00;99.90
25410;DHT22;13339;50.840;4.346;2023-03-21T11:19:53;17.00;99.90
25410;DHT22;13339;50.840;4.346;2023-03-21T11:22:24;17.00;99.90
25410;DHT22;13339;50.840;4.346;2023-03-21T11:24:58;17.00;99.90
25410;DHT22;13339;50.840;4.346;2023-03-21T11:27:27;16.90;99.90
25410;DHT22;13339;50.840;4.346;2023-03-21T11:29:54;16.70;99.90
25410;DHT22;13339;50.840;4.346;2023-03-21T11:32:25;16.50;99.90
25410;DHT22;13339;50.840;4.346;2023-03-21T11:35:14;16.50;99.90
25410;DHT22;13339;50.840;4.346;2023-03-21T11:37:42;16.50;99.90
25410;DHT22;13339;50.840;4.346;2023-03-21T11:42:52;16.60;99.90
25410;DHT22;13339;50.840;4.346;2023-03-21T11:45:23;16.50;99.90
25410;DHT22;13339;50.840;4.346;2023-03-21T11:47:52;16.40;99.90
25410;DHT22;13339;50.840;4.346;2023-03-21T11:50:35;16.50;99.90
25410;DHT22;13339;50.840;4.346;2023-03-21T11:53:04;16.50;99.90
25410;DHT22;13339;50.840;4.346;2023-03-21T11:58:25;16.80;99.90
25410;DHT22;13339;50.840;4.346;2023-03-21T12:01:12;17.00;99.90
25410;DHT22;13339;50.840;4.346;2023-03-21T12:20:30;17.00;99.90
25410;DHT22;13339;50.840;4.346;2023-03-21T12:25:48;17.00;99.90
25410;DHT22;13339;50.840;4.346;2023-03-21T12:37:08;16.80;99.90
25410;DHT22;13339;50.840;4.346;2023-03-21T12:39:39;16.90;99.90
25410;DHT22;13339;50.840;4.346;2023-03-21T12:44:55;17.00;99.90
25410;DHT22;13339;50.840;4.346;2023-03-21T12:47:25;16.90;99.90
25410;DHT22;13339;50.840;4.346;2023-03-21T12:50:04;17.00;99.90
25410;DHT22;13339;50.840;4.346;2023-03-21T12:52:38;17.00;99.90
25410;DHT22;13339;50.840;4.346;2023-03-21T12:55:06;17.00;99.90
25410;DHT22;13339;50.840;4.346;2023-03-21T12:58:01;17.00;99.90
25410;DHT22;13339;50.840;4.346;2023-03-21T13:00:46;16.90;99.90
25410;DHT22;13339;50.840;4.346;2023-03-21T13:05:42;16.90;99.90
25410;DHT22;13339;50.840;4.346;2023-03-21T13:11:04;16.90;99.90
25410;DHT22;13339;50.840;4.346;2023-03-21T13:16:28;17.30;99.90
25410;DHT22;13339;50.840;4.346;2023-03-21T13:22:15;17.40;99.90
25410;DHT22;13339;50.840;4.346;2023-03-21T13:24:41;17.40;99.90
25410;DHT22;13339;50.840;4.346;2023-03-21T13:27:34;17.50;99.90
25410;DHT22;13339;50.840;4.346;2023-03-21T13:30:05;17.40;99.90
25410;DHT22;13339;50.840;4.346;2023-03-21T13:32:39;17.40;99.90
25410;DHT22;13339;50.840;4.346;2023-03-21T13:37:34;17.40;99.90
25410;DHT22;13339;50.840;4.346;2023-03-21T13:40:06;17.50;99.90
25410;DHT22;13339;50.840;4.346;2023-03-21T13:42:43;17.50;99.90
25410;DHT22;13339;50.840;4.346;2023-03-21T13:45:11;17.50;99.90
25410;DHT22;13339;50.840;4.346;2023-03-21T13:47:55;17.50;99.90
25410;DHT22;13339;50.840;4.346;2023-03-21T13:50:23;17.50;99.90
25410;DHT22;13339;50.840;4.346;2023-03-21T13:55:45;17.60;99.90
25410;DHT22;13339;50.840;4.346;2023-03-21T13:58:36;17.60;99.90
25410;DHT22;13339;50.840;4.346;2023-03-21T14:04:19;17.50;99.90
25410;DHT22;13339;50.840;4.346;2023-03-21T14:07:06;17.50;99.90
25410;DHT22;13339;50.840;4.346;2023-03-21T14:09:38;17.40;99.90
25410;DHT22;13339;50.840;4.346;2023-03-21T14:12:07;17.30;99.90
25410;DHT22;13339;50.840;4.346;2023-03-21T14:14:40;17.30;99.90
25410;DHT22;13339;50.840;4.346;2023-03-21T14:17:19;17.20;99.90
25410;DHT22;13339;50.840;4.346;2023-03-21T14:19:49;17.20;99.90
25410;DHT22;13339;50.840;4.346;2023-03-21T14:22:15;17.00;99.90
25410;DHT22;13339;50.840;4.346;2023-03-21T14:24:47;17.00;99.90
25410;DHT22;13339;50.840;4.346;2023-03-21T14:27:12;17.00;99.90
25410;DHT22;13339;50.840;4.346;2023-03-21T14:29:38;17.00;99.90
25410;DHT22;13339;50.840;4.346;2023-03-21T14:32:04;17.00;99.90
25410;DHT22;13339;50.840;4.346;2023-03-21T14:34:33;17.00;99.90
25410;DHT22;13339;50.840;4.346;2023-03-21T14:36:59;17.00;99.90
25410;DHT22;13339;50.840;4.346;2023-03-21T14:41:55;16.80;99.90
25410;DHT22;13339;50.840;4.346;2023-03-21T14:44:25;16.90;99.90
25410;DHT22;13339;50.840;4.346;2023-03-21T14:47:01;16.70;99.90
25410;DHT22;13339;50.840;4.346;2023-03-21T14:49:29;16.70;99.90
25410;DHT22;13339;50.840;4.346;2023-03-21T14:52:01;16.70;99.90
25410;DHT22;13339;50.840;4.346;2023-03-21T14:54:27;16.70;99.90
25410;DHT22;13339;50.840;4.346;2023-03-21T14:56:59;16.50;99.90
25410;DHT22;13339;50.840;4.346;2023-03-21T14:59:29;16.60;99.90
25410;DHT22;13339;50.840;4.346;2023-03-21T15:01:56;16.60;99.90
25410;DHT22;13339;50.840;4.346;2023-03-21T15:04:24;16.70;99.90
25410;DHT22;13339;50.840;4.346;2023-03-21T15:06:51;16.60;99.90
25410;DHT22;13339;50.840;4.346;2023-03-21T15:09:22;16.60;99.90
25410;DHT22;13339;50.840;4.346;2023-03-21T15:11:53;16.70;99.90
25410;DHT22;13339;50.840;4.346;2023-03-21T15:14:31;16.70;99.90
25410;DHT22;13339;50.840;4.346;2023-03-21T15:16:59;16.70;99.90
25410;DHT22;13339;50.840;4.346;2023-03-21T15:19:35;16.60;99.90
25410;DHT22;13339;50.840;4.346;2023-03-21T15:22:11;16.70;99.90
25410;DHT22;13339;50.840;4.346;2023-03-21T15:24:41;16.80;99.90
25410;DHT22;13339;50.840;4.346;2023-03-21T15:27:14;16.80;99.90
25410;DHT22;13339;50.840;4.346;2023-03-21T15:29:42;16.80;99.90
25410;DHT22;13339;50.840;4.346;2023-03-21T15:32:15;16.70;99.90
25410;DHT22;13339;50.840;4.346;2023-03-21T15:34:42;16.60;99.90
25410;DHT22;13339;50.840;4.346;2023-03-21T15:37:15;16.60;99.90
25410;DHT22;13339;50.840;4.346;2023-03-21T15:39:41;16.50;99.90
25410;DHT22;13339;50.840;4.346;2023-03-21T15:42:31;16.50;99.90
25410;DHT22;13339;50.840;4.346;2023-03-21T15:45:01;16.40;99.90
25410;DHT22;13339;50.840;4.346;2023-03-21T15:47:53;16.30;99.90
25410;DHT22;13339;50.840;4.346;2023-03-21T15:52:50;16.20;99.90
25410;DHT22;13339;50.840;4.346;2023-03-21T15:55:22;16.10;99.90
25410;DHT22;13339;50.840;4.346;2023-03-21T15:57:54;16.10;99.90
25410;DHT22;13339;50.840;4.346;2023-03-21T16:00:34;16.10;99.90
25410;DHT22;13339;50.840;4.346;2023-03-21T16:03:06;16.20;99.90
25410;DHT22;13339;50.840;4.346;2023-03-21T16:05:33;16.20;99.90
25410;DHT22;13339;50.840;4.346;2023-03-21T16:10:44;16.10;99.90
25410;DHT22;13339;50.840;4.346;2023-03-21T16:13:10;16.20;99.90
25410;DHT22;13339;50.840;4.346;2023-03-21T16:15:38;16.10;99.90
25410;DHT22;13339;50.840;4.346;2023-03-21T16:18:04;16.10;99.90
25410;DHT22;13339;50.840;4.346;2023-03-21T16:20:34;16.20;99.90
25410;DHT22;13339;50.840;4.346;2023-03-21T16:23:01;16.00;99.90
25410;DHT22;13339;50.840;4.346;2023-03-21T16:25:29;16.00;99.90
25410;DHT22;13339;50.840;4.346;2023-03-21T16:27:55;16.00;99.90
25410;DHT22;13339;50.840;4.346;2023-03-21T16:30:21;16.10;99.90
25410;DHT22;13339;50.840;4.346;2023-03-21T16:32:47;16.10;99.90
25410;DHT22;13339;50.840;4.346;2023-03-21T16:35:14;16.20;99.90
25410;DHT22;13339;50.840;4.346;2023-03-21T16:37:40;16.20;99.90
25410;DHT22;13339;50.840;4.346;2023-03-21T16:40:29;16.10;99.90
25410;DHT22;13339;50.840;4.346;2023-03-21T16:42:55;16.20;99.90
25410;DHT22;13339;50.840;4.346;2023-03-21T16:45:21;16.30;99.90
25410;DHT22;13339;50.840;4.346;2023-03-21T16:47:48;16.30;99.90
25410;DHT22;13339;50.840;4.346;2023-03-21T16:50:26;16.30;99.90
25410;DHT22;13339;50.840;4.346;2023-03-21T16:52:53;16.20;99.90
25410;DHT22;13339;50.840;4.346;2023-03-21T16:55:19;16.30;99.90
25410;DHT22;13339;50.840;4.346;2023-03-21T16:57:45;16.20;99.90
25410;DHT22;13339;50.840;4.346;2023-03-21T17:00:14;16.20;99.90
25410;DHT22;13339;50.840;4.346;2023-03-21T17:02:43;16.20;99.90
25410;DHT22;13339;50.840;4.346;2023-03-21T17:05:09;16.20;99.90
25410;DHT22;13339;50.840;4.346;2023-03-21T17:07:36;16.20;99.90
25410;DHT22;13339;50.840;4.346;2023-03-21T17:10:02;16.20;99.90
25410;DHT22;13339;50.840;4.346;2023-03-21T17:12:28;15.90;99.90
25410;DHT22;13339;50.840;4.346;2023-03-21T17:14:53;15.90;99.90
25410;DHT22;13339;50.840;4.346;2023-03-21T17:17:19;15.90;99.90
25410;DHT22;13339;50.840;4.346;2023-03-21T17:19:45;16.00;99.90